Weather at Waco Regional Airport

Public forecast

Using degrees Fahrenheit for public forecast. Weather courtesy of forecast.io.

Current aviation weather report (METAR) for Waco Regional Airport

2022/11/27 01:51 (retrieved 12 minutes ago)

KACT 270151Z 24008KT 10SM CLR 08/06 A2980 RMK AO2 SLP090 T00830056

Closest aviation forecast (TAF) to Waco Regional Airport

Forecast is more than 6 hours old.

Closest forecast is Lackland Air Force Base, 150.9 nm (279.4 km) SSW.

2022/11/26 18:58 (retrieved 7 hours ago)

TAF KSKF 261800Z 2618/2724 29012G18KT 9999 FEW065 520045 QNH2994INS TEMPO 2618/2624 29018G28KT BECMG 2623/2700 24009KT 9999 SKC QNH2985INS TX17/2620Z TN06/2711Z